Time;durP1;ratioP1;P1;durP2;ratioP2;P2;SDS_P1;SDS_P2;PMS_P1;PMS_P2;Temp;Humidity;BMP_temperature;BMP_pressure;BME280_temperature;BME280_humidity;BME280_pressure;Samples;Min_cycle;Max_cycle;Signal;HPM_P1;HPM_P2
2021/06/23 00:01:13;;;;;;;51.05;10.50;;;13.80;99.90;;;;;;5013017;28;20036;-79
2021/06/23 00:03:38;;;;;;;45.92;10.23;;;13.80;99.90;;;;;;5012998;28;20026;-79
2021/06/23 00:06:04;;;;;;;51.97;10.82;;;13.80;99.90;;;;;;5010067;28;20055;-79
2021/06/23 00:08:30;;;;;;;77.38;11.35;;;13.80;99.90;;;;;;4993284;28;20120;-79
2021/06/23 00:10:55;;;;;;;47.38;10.38;;;13.80;99.90;;;;;;5008552;28;20029;-79
2021/06/23 00:13:22;;;;;;;43.92;9.90;;;13.80;99.90;;;;;;5024236;28;20050;-79
2021/06/23 00:15:48;;;;;;;52.80;9.30;;;13.80;99.90;;;;;;4993389;28;20048;-78
2021/06/23 00:18:14;;;;;;;64.82;9.75;;;13.90;99.90;;;;;;5010210;28;20458;-79
2021/06/23 00:20:40;;;;;;;54.72;11.23;;;13.90;99.90;;;;;;5012846;28;20030;-79
2021/06/23 00:23:05;;;;;;;53.97;10.77;;;13.90;99.90;;;;;;5012539;28;20490;-79
2021/06/23 00:25:32;;;;;;;65.15;11.70;;;13.80;99.90;;;;;;5012729;28;20030;-78
2021/06/23 00:27:57;;;;;;;60.10;11.05;;;13.80;99.90;;;;;;5000222;28;20030;-78
2021/06/23 00:30:24;;;;;;;52.15;11.77;;;13.90;99.90;;;;;;4993068;28;20049;-79
2021/06/23 00:32:52;;;;;;;42.42;9.85;;;13.90;99.90;;;;;;5007556;28;20025;-79
2021/06/23 00:35:17;;;;;;;42.17;10.55;;;13.90;99.90;;;;;;4992983;28;20022;-79
2021/06/23 00:37:43;;;;;;;47.00;10.32;;;13.90;99.90;;;;;;5000347;28;20478;-79
2021/06/23 00:40:10;;;;;;;35.15;8.88;;;13.90;99.90;;;;;;5012477;28;20037;-79
2021/06/23 00:42:36;;;;;;;50.35;9.82;;;13.80;99.90;;;;;;5010889;28;20053;-79
2021/06/23 00:45:07;;;;;;;50.08;10.00;;;13.90;99.90;;;;;;5012413;28;20052;-79
2021/06/23 00:47:33;;;;;;;67.32;12.57;;;13.80;99.90;;;;;;5009554;28;20030;-79
2021/06/23 00:50:03;;;;;;;44.03;10.25;;;13.80;99.90;;;;;;4992788;28;20391;-79
2021/06/23 00:52:29;;;;;;;43.88;9.98;;;13.80;99.90;;;;;;4992253;28;20394;-79
2021/06/23 00:54:54;;;;;;;56.38;12.02;;;13.90;99.90;;;;;;4992615;28;20026;-79
2021/06/23 00:57:20;;;;;;;47.30;9.20;;;13.90;99.90;;;;;;4992619;28;20050;-79
2021/06/23 00:59:50;;;;;;;47.92;9.95;;;13.90;99.90;;;;;;5009398;28;20127;-79
2021/06/23 01:02:17;;;;;;;46.92;9.73;;;13.80;99.90;;;;;;5011693;28;20026;-79
2021/06/23 01:04:44;;;;;;;59.80;10.05;;;13.90;99.90;;;;;;5012304;28;20129;-79
2021/06/23 01:07:09;;;;;;;53.97;10.15;;;13.90;99.90;;;;;;5012058;28;20433;-79
2021/06/23 01:09:35;;;;;;;53.05;10.88;;;13.90;99.90;;;;;;4997573;28;20089;-79
2021/06/23 01:12:23;;;;;;;44.63;10.73;;;13.90;99.90;;;;;;5007194;28;20026;-79
2021/06/23 01:14:53;;;;;;;59.25;11.95;;;13.90;99.90;;;;;;4990566;28;20076;-79
2021/06/23 01:17:20;;;;;;;54.78;9.95;;;13.90;99.90;;;;;;5007322;28;20022;-79
2021/06/23 01:19:47;;;;;;;50.67;10.93;;;13.90;99.90;;;;;;5004756;28;20049;-79
2021/06/23 01:22:17;;;;;;;65.22;11.18;;;13.90;99.90;;;;;;5010306;28;20026;-78
2021/06/23 01:24:44;;;;;;;57.22;12.93;;;13.90;99.90;;;;;;5010551;28;20025;-79
2021/06/23 01:27:11;;;;;;;72.13;12.18;;;13.90;99.90;;;;;;5010365;28;20030;-79
2021/06/23 01:29:37;;;;;;;52.45;10.07;;;13.90;99.90;;;;;;5006891;28;20034;-79
2021/06/23 01:32:07;;;;;;;45.63;11.35;;;13.90;99.90;;;;;;4991738;28;20093;-79
2021/06/23 01:34:33;;;;;;;54.42;10.07;;;14.00;99.90;;;;;;4993205;28;20054;-78
2021/06/23 01:36:58;;;;;;;58.20;12.65;;;14.00;99.90;;;;;;5007140;28;20493;-79
2021/06/23 01:39:24;;;;;;;59.13;11.63;;;13.90;99.90;;;;;;4995895;28;20113;-79
2021/06/23 01:41:49;;;;;;;54.20;10.02;;;14.00;99.90;;;;;;5011157;28;20041;-79
2021/06/23 01:44:15;;;;;;;57.45;11.57;;;14.00;99.90;;;;;;5011607;28;20026;-78
2021/06/23 01:46:41;;;;;;;66.20;10.55;;;14.00;99.90;;;;;;5011486;28;20031;-79
2021/06/23 01:49:06;;;;;;;47.13;10.13;;;14.00;99.90;;;;;;5014574;28;20030;-79
2021/06/23 01:51:32;;;;;;;58.00;11.40;;;14.00;99.90;;;;;;4996476;28;20030;-79
2021/06/23 01:53:57;;;;;;;35.85;8.98;;;14.00;99.90;;;;;;4994761;28;20035;-79
2021/06/23 01:56:23;;;;;;;43.45;10.63;;;14.00;99.90;;;;;;5010801;28;20018;-79
2021/06/23 01:58:48;;;;;;;58.58;11.02;;;14.00;99.90;;;;;;4995906;28;20069;-79
2021/06/23 02:01:26;;;;;;;32.60;7.85;;;13.90;99.90;;;;;;5023743;28;20108;-79
2021/06/23 02:03:54;;;;;;;44.38;9.77;;;14.00;99.90;;;;;;5015430;28;20030;-79
2021/06/23 02:06:45;;;;;;;45.08;10.00;;;13.90;99.90;;;;;;5014105;28;20033;-79
2021/06/23 02:09:26;;;;;;;42.50;9.60;;;14.00;99.90;;;;;;5015236;28;20022;-79
2021/06/23 02:12:18;;;;;;;49.63;10.23;;;13.90;99.90;;;;;;4999190;28;20398;-79
2021/06/23 02:14:44;;;;;;;54.42;10.82;;;14.00;99.90;;;;;;4995674;28;20113;-79
2021/06/23 02:17:12;;;;;;;47.00;9.57;;;13.80;99.90;;;;;;4995339;28;20475;-79
2021/06/23 02:19:43;;;;;;;35.72;8.82;;;13.90;99.90;;;;;;4995518;28;20034;-79
2021/06/23 02:22:28;;;;;;;39.53;9.52;;;13.90;99.90;;;;;;5009755;28;20026;-79
2021/06/23 02:25:01;;;;;;;31.52;9.10;;;13.90;99.90;;;;;;5013859;28;20036;-79
2021/06/23 02:27:26;;;;;;;42.50;10.45;;;13.90;99.90;;;;;;5014956;28;20375;-79
2021/06/23 02:29:52;;;;;;;32.80;9.80;;;13.90;99.90;;;;;;5013624;28;20032;-79
2021/06/23 02:32:24;;;;;;;45.28;10.27;;;14.00;99.90;;;;;;5000819;28;20114;-79
2021/06/23 02:34:54;;;;;;;45.15;10.23;;;14.00;99.90;;;;;;4995314;28;20023;-79
2021/06/23 02:37:22;;;;;;;34.83;8.98;;;13.90;99.90;;;;;;4993856;28;20048;-79
2021/06/23 02:39:48;;;;;;;35.00;8.50;;;13.90;99.90;;;;;;4995972;28;20063;-79
2021/06/23 02:42:14;;;;;;;32.67;8.68;;;14.00;99.90;;;;;;5004449;28;20209;-79
2021/06/23 02:44:40;;;;;;;47.55;9.98;;;14.00;99.90;;;;;;5013351;28;20026;-79
2021/06/23 02:47:06;;;;;;;43.28;9.07;;;14.00;99.90;;;;;;5014480;28;20029;-79
2021/06/23 02:49:33;;;;;;;39.80;10.77;;;14.00;99.90;;;;;;5029656;28;20030;-78
2021/06/23 02:51:59;;;;;;;36.75;10.18;;;14.00;99.90;;;;;;5009648;28;20034;-79
2021/06/23 02:54:25;;;;;;;56.10;10.25;;;14.00;99.90;;;;;;5009966;28;20081;-79
2021/06/23 02:56:52;;;;;;;44.22;9.50;;;13.90;99.90;;;;;;5009749;28;20457;-79
2021/06/23 02:59:19;;;;;;;50.13;11.40;;;13.90;99.90;;;;;;4993616;28;20509;-79
2021/06/23 03:01:45;;;;;;;37.65;9.32;;;13.90;99.90;;;;;;4994478;28;20066;-78
2021/06/23 03:04:11;;;;;;;48.63;10.50;;;13.90;99.90;;;;;;5013030;28;20026;-79
2021/06/23 03:06:36;;;;;;;48.33;12.38;;;13.90;99.90;;;;;;5014235;28;20026;-79
2021/06/23 03:09:03;;;;;;;35.85;9.00;;;13.90;99.90;;;;;;5014179;28;20030;-79
2021/06/23 03:11:37;;;;;;;36.75;9.65;;;13.90;99.90;;;;;;5013753;28;20033;-79
2021/06/23 03:14:02;;;;;;;;;;;14.00;99.90;;;;;;5013677;28;20022;-79
2021/06/23 03:16:28;;;;;;;36.55;9.05;;;13.90;99.90;;;;;;5014086;28;19905;-79
2021/06/23 03:18:54;;;;;;;50.78;10.85;;;13.90;99.90;;;;;;5012687;28;20116;-79
2021/06/23 03:21:20;;;;;;;39.80;9.30;;;14.00;99.90;;;;;;5012461;28;20074;-79
2021/06/23 03:23:50;;;;;;;49.67;10.25;;;13.90;99.90;;;;;;5002462;28;20522;-78
2021/06/23 03:26:17;;;;;;;40.28;8.77;;;13.90;99.90;;;;;;5009462;28;20026;-79
2021/06/23 03:28:42;;;;;;;41.25;10.30;;;14.00;99.90;;;;;;4994231;28;20022;-79
2021/06/23 03:31:08;;;;;;;50.75;10.65;;;14.00;99.90;;;;;;4994069;28;20030;-78
2021/06/23 03:33:34;;;;;;;40.10;9.05;;;14.00;99.90;;;;;;5015410;28;20025;-79
2021/06/23 03:35:59;;;;;;;36.05;9.18;;;13.90;99.90;;;;;;5012500;28;20536;-79
2021/06/23 03:38:25;;;;;;;35.35;9.02;;;13.90;99.90;;;;;;5012531;28;20034;-79
2021/06/23 03:40:50;;;;;;;43.78;11.77;;;14.00;99.90;;;;;;5012346;28;20034;-79
2021/06/23 03:43:19;;;;;;;42.45;9.68;;;14.00;99.90;;;;;;5011459;28;20474;-79
2021/06/23 03:45:45;;;;;;;35.45;9.05;;;13.90;99.90;;;;;;4993990;28;20026;-79
2021/06/23 03:48:11;;;;;;;36.35;8.60;;;13.90;99.90;;;;;;4993739;28;20514;-79
2021/06/23 03:50:38;;;;;;;38.35;8.93;;;13.90;99.90;;;;;;4993837;28;20050;-79
2021/06/23 03:53:04;;;;;;;24.05;8.07;;;14.00;99.90;;;;;;4993353;28;20101;-79
2021/06/23 03:55:30;;;;;;;33.22;9.07;;;13.90;99.90;;;;;;5010227;28;20490;-79
2021/06/23 03:57:57;;;;;;;30.88;7.68;;;14.00;99.90;;;;;;5013269;28;20061;-78
2021/06/23 04:00:25;;;;;;;51.42;8.95;;;13.90;99.90;;;;;;5013195;28;20474;-79
2021/06/23 04:02:51;;;;;;;31.80;8.10;;;13.90;99.90;;;;;;5012778;28;20629;-78
2021/06/23 04:05:16;;;;;;;29.00;7.50;;;14.00;99.90;;;;;;5008333;28;20088;-79
2021/06/23 04:07:42;;;;;;;38.53;8.85;;;13.90;99.90;;;;;;4993387;28;20035;-79
2021/06/23 04:10:09;;;;;;;38.55;9.57;;;14.00;99.90;;;;;;4993036;28;20038;-79
2021/06/23 04:12:35;;;;;;;36.35;8.77;;;14.00;99.90;;;;;;4992897;28;20384;-79
2021/06/23 04:15:01;;;;;;;26.65;7.45;;;14.00;99.90;;;;;;4999211;28;20057;-79
2021/06/23 04:17:26;;;;;;;37.25;8.63;;;14.00;99.90;;;;;;5012868;28;20030;-79
2021/06/23 04:19:52;;;;;;;41.55;7.47;;;14.00;99.90;;;;;;5012888;28;20049;-79
2021/06/23 04:22:17;;;;;;;37.95;9.80;;;13.90;99.90;;;;;;5012353;28;20410;-79
2021/06/23 04:24:43;;;;;;;40.58;9.57;;;14.00;99.90;;;;;;5010765;28;20147;-79
2021/06/23 04:27:09;;;;;;;28.48;7.70;;;14.00;99.90;;;;;;4991797;28;20029;-79
2021/06/23 04:29:34;;;;;;;37.05;9.07;;;14.00;99.90;;;;;;4993021;28;20121;-79
2021/06/23 04:32:00;;;;;;;43.15;8.57;;;14.00;99.90;;;;;;4992673;28;20023;-79
2021/06/23 04:34:25;;;;;;;48.55;9.63;;;14.00;99.90;;;;;;4993028;28;20058;-79
2021/06/23 04:36:51;;;;;;;34.33;9.20;;;14.00;99.90;;;;;;5008994;28;20030;-79
2021/06/23 04:39:17;;;;;;;32.03;8.77;;;14.00;99.90;;;;;;5027658;28;20073;-79
2021/06/23 04:41:43;;;;;;;36.13;10.10;;;14.00;99.90;;;;;;5012189;28;20034;-79
2021/06/23 04:44:08;;;;;;;39.58;9.65;;;14.00;99.90;;;;;;5012534;28;20033;-79
2021/06/23 04:46:34;;;;;;;28.55;8.10;;;14.00;99.90;;;;;;5001014;28;20085;-79
2021/06/23 04:49:01;;;;;;;38.80;8.30;;;14.10;99.90;;;;;;4991314;28;20038;-79
2021/06/23 04:51:27;;;;;;;25.55;7.32;;;14.10;99.90;;;;;;4992423;28;20026;-79
2021/06/23 04:53:52;;;;;;;32.33;7.90;;;14.10;99.90;;;;;;4992595;28;20054;-79
2021/06/23 04:56:18;;;;;;;28.70;8.10;;;14.10;99.90;;;;;;4997269;28;20069;-79
2021/06/23 04:58:43;;;;;;;27.42;8.52;;;14.30;99.90;;;;;;5012211;28;20030;-79
2021/06/23 05:01:09;;;;;;;39.75;8.82;;;14.20;99.90;;;;;;5010839;28;20083;-79
2021/06/23 05:03:35;;;;;;;31.17;10.27;;;14.20;99.90;;;;;;5011847;28;20025;-79
2021/06/23 05:06:01;;;;;;;30.33;8.00;;;14.20;99.90;;;;;;5009529;28;20113;-79
2021/06/23 05:08:28;;;;;;;37.05;8.10;;;14.20;99.90;;;;;;4992396;28;20660;-79
2021/06/23 05:10:54;;;;;;;34.33;8.60;;;14.20;99.90;;;;;;5007339;28;20482;-79
2021/06/23 05:13:21;;;;;;;40.30;10.60;;;14.30;99.90;;;;;;5007218;28;20395;-79
2021/06/23 05:15:46;;;;;;;31.10;12.13;;;14.20;99.90;;;;;;4992374;28;20025;-79
2021/06/23 05:18:13;;;;;;;39.88;8.63;;;14.20;99.90;;;;;;4993117;28;20026;-79
2021/06/23 05:20:38;;;;;;;44.08;10.05;;;14.30;99.90;;;;;;4992356;28;20482;-78
2021/06/23 05:23:04;;;;;;;37.10;9.60;;;14.20;99.90;;;;;;4991280;28;20033;-79
2021/06/23 05:25:30;;;;;;;41.38;9.75;;;14.30;99.90;;;;;;4992177;28;20030;-79
2021/06/23 05:27:55;;;;;;;32.50;9.45;;;14.30;99.90;;;;;;4991869;28;20117;-79
2021/06/23 05:30:21;;;;;;;37.28;8.07;;;14.30;99.90;;;;;;4992162;28;20404;-79
2021/06/23 05:32:47;;;;;;;35.35;8.13;;;14.30;99.90;;;;;;4991615;28;20057;-79
2021/06/23 05:35:13;;;;;;;36.38;8.00;;;14.30;99.90;;;;;;5007353;28;20034;-79
2021/06/23 05:37:38;;;;;;;44.15;9.48;;;14.30;99.90;;;;;;4995934;28;20117;-79
2021/06/23 05:40:05;;;;;;;34.00;8.32;;;14.40;99.90;;;;;;5011663;28;20104;-79
2021/06/23 05:42:30;;;;;;;34.83;8.45;;;14.50;99.90;;;;;;5011258;28;20080;-79
2021/06/23 05:44:56;;;;;;;47.60;10.90;;;14.50;99.90;;;;;;5011538;28;20021;-79
2021/06/23 05:47:22;;;;;;;33.45;8.23;;;14.50;99.90;;;;;;5010909;28;20457;-79
2021/06/23 05:49:48;;;;;;;30.58;7.63;;;14.60;99.90;;;;;;4992067;28;20034;-79
2021/06/23 05:52:13;;;;;;;47.00;11.27;;;14.60;99.90;;;;;;4992679;28;20053;-79
2021/06/23 05:54:39;;;;;;;48.22;9.00;;;14.60;99.90;;;;;;4991995;28;20022;-79
2021/06/23 05:57:05;;;;;;;31.52;8.38;;;14.60;99.90;;;;;;4991884;28;20034;-79
2021/06/23 05:59:31;;;;;;;49.72;10.63;;;14.70;99.90;;;;;;5004691;28;20032;-79
2021/06/23 06:01:57;;;;;;;39.67;8.63;;;14.70;99.90;;;;;;4992536;28;20062;-80
2021/06/23 06:04:23;;;;;;;47.55;10.13;;;14.60;99.90;;;;;;4992102;28;20027;-78
2021/06/23 06:06:48;;;;;;;44.38;9.93;;;14.70;99.90;;;;;;5011725;28;20032;-79
2021/06/23 06:09:14;;;;;;;34.40;9.73;;;14.60;99.90;;;;;;5006543;28;20488;-79
2021/06/23 06:11:39;;;;;;;38.28;9.15;;;14.60;99.90;;;;;;5005957;28;20072;-80
2021/06/23 06:14:05;;;;;;;52.65;8.90;;;14.70;99.90;;;;;;5008624;28;20077;-79
2021/06/23 06:16:32;;;;;;;45.95;10.32;;;14.70;99.90;;;;;;5005850;28;20117;-80
2021/06/23 06:18:57;;;;;;;38.75;8.45;;;14.80;99.90;;;;;;5010181;28;20463;-78
2021/06/23 06:21:23;;;;;;;44.40;9.20;;;14.80;99.90;;;;;;5011399;28;20028;-78
2021/06/23 06:23:49;;;;;;;48.47;8.75;;;14.70;99.90;;;;;;5012414;28;20080;-78
2021/06/23 06:26:15;;;;;;;53.10;10.32;;;14.70;99.90;;;;;;5012506;28;20505;-78
2021/06/23 06:28:41;;;;;;;45.72;9.60;;;14.70;99.90;;;;;;5010369;28;20041;-78
2021/06/23 06:31:07;;;;;;;39.88;8.38;;;14.70;99.90;;;;;;5010676;28;20029;-78
2021/06/23 06:33:33;;;;;;;44.13;8.27;;;14.70;99.90;;;;;;5011539;28;20037;-78
2021/06/23 06:35:59;;;;;;;35.60;8.02;;;14.80;99.90;;;;;;5015389;28;20037;-78
2021/06/23 06:38:24;;;;;;;45.45;8.00;;;14.90;99.90;;;;;;5014092;28;20038;-78
2021/06/23 06:40:50;;;;;;;34.85;8.98;;;15.00;99.90;;;;;;5002035;28;20037;-78
2021/06/23 06:43:16;;;;;;;38.15;9.93;;;15.00;99.90;;;;;;4995286;28;20502;-78
2021/06/23 06:45:41;;;;;;;28.38;7.95;;;15.00;99.90;;;;;;4995457;28;20046;-78
2021/06/23 06:48:07;;;;;;;29.20;7.22;;;15.10;99.90;;;;;;4994197;28;20023;-78
2021/06/23 06:50:33;;;;;;;50.78;7.80;;;15.00;99.90;;;;;;5001757;28;20053;-78
2021/06/23 06:52:59;;;;;;;46.95;8.00;;;15.10;99.90;;;;;;5014710;28;20033;-78
2021/06/23 06:55:24;;;;;;;44.97;7.80;;;15.10;99.90;;;;;;5030230;28;20112;-78
2021/06/23 06:57:53;;;;;;;37.08;9.93;;;15.20;99.90;;;;;;5014835;28;20437;-77
2021/06/23 07:00:20;;;;;;;42.38;9.68;;;15.30;99.90;;;;;;5011425;28;20046;-77
2021/06/23 07:02:46;;;;;;;46.90;8.93;;;15.40;99.90;;;;;;5014165;28;20028;-78
2021/06/23 07:05:12;;;;;;;47.55;8.07;;;15.50;99.90;;;;;;5009914;28;20039;-78
2021/06/23 07:07:38;;;;;;;35.13;8.40;;;15.50;99.90;;;;;;4993779;28;20026;-78
2021/06/23 07:10:05;;;;;;;36.25;7.03;;;15.40;99.90;;;;;;5009915;28;20118;-78
2021/06/23 07:12:30;;;;;;;36.53;8.20;;;15.40;99.90;;;;;;4994982;28;20054;-78
2021/06/23 07:14:56;;;;;;;29.40;7.57;;;15.40;99.90;;;;;;4994980;28;20065;-78
2021/06/23 07:17:21;;;;;;;37.20;7.40;;;15.40;99.90;;;;;;4994831;28;20109;-78
2021/06/23 07:19:47;;;;;;;38.75;7.45;;;15.60;99.90;;;;;;4994982;28;20062;-78
2021/06/23 07:22:13;;;;;;;33.58;6.90;;;15.60;99.90;;;;;;5018034;28;20516;-78
2021/06/23 07:24:38;;;;;;;59.30;9.43;;;15.60;99.90;;;;;;4994697;28;20037;-78
2021/06/23 07:27:04;;;;;;;37.67;7.05;;;15.70;99.90;;;;;;4992283;28;20038;-77
2021/06/23 07:29:30;;;;;;;38.45;7.40;;;15.60;99.90;;;;;;5036974;28;20046;-77
2021/06/23 07:32:02;;;;;;;37.40;7.72;;;15.50;99.90;;;;;;5009091;28;20451;-79
2021/06/23 07:36:57;;;;;;;36.78;7.35;;;15.60;99.90;;;;;;5009726;28;20290;-77
2021/06/23 07:39:23;;;;;;;45.42;8.55;;;15.70;99.90;;;;;;5009710;28;20041;-78
2021/06/23 07:41:51;;;;;;;39.15;8.13;;;15.60;99.90;;;;;;5008232;28;20041;-79
2021/06/23 07:44:21;;;;;;;38.58;6.88;;;15.80;99.90;;;;;;5011599;28;20495;-78
2021/06/23 07:46:49;;;;;;;41.22;8.57;;;15.70;99.90;;;;;;5013130;28;20037;-78
2021/06/23 07:49:16;;;;;;;46.55;8.95;;;15.80;99.90;;;;;;5012507;28;20063;-78
2021/06/23 07:51:59;;;;;;;32.38;7.70;;;15.70;99.90;;;;;;5011519;28;20033;-77
2021/06/23 08:10:39;;;;;;;;;;;15.90;99.90;;;;;;4994104;28;20566;-78
2021/06/23 08:13:05;;;;;;;44.38;7.38;;;15.90;99.90;;;;;;4998892;28;19979;-78
2021/06/23 08:15:34;;;;;;;36.78;7.32;;;15.90;99.90;;;;;;5012204;28;20053;-77
2021/06/23 08:18:00;;;;;;;46.72;7.47;;;16.00;99.90;;;;;;5012062;28;20037;-78
2021/06/23 08:20:26;;;;;;;46.08;9.35;;;16.00;99.90;;;;;;5013258;28;20029;-78
2021/06/23 08:22:52;;;;;;;37.65;7.68;;;16.00;99.90;;;;;;5011659;28;20025;-77
2021/06/23 08:25:20;;;;;;;50.85;10.98;;;16.20;99.90;;;;;;4993665;28;20101;-78
2021/06/23 08:27:46;;;;;;;34.72;7.68;;;16.20;99.90;;;;;;4993455;28;20033;-78
2021/06/23 08:30:12;;;;;;;38.40;9.50;;;16.40;99.90;;;;;;4993563;28;20109;-78
2021/06/23 08:32:38;;;;;;;33.42;8.38;;;16.30;99.90;;;;;;4993148;28;20052;-78
2021/06/23 08:35:09;;;;;;;30.45;7.82;;;16.30;99.90;;;;;;5009229;28;20394;-77
2021/06/23 08:37:35;;;;;;;29.20;7.85;;;16.30;99.90;;;;;;5013191;28;20419;-78
2021/06/23 08:40:02;;;;;;;36.63;9.20;;;16.30;99.90;;;;;;5011687;28;20169;-78
2021/06/23 08:42:27;;;;;;;29.73;7.22;;;16.40;99.90;;;;;;5011416;28;20371;-77
2021/06/23 08:44:53;;;;;;;28.63;6.65;;;16.30;99.90;;;;;;5000876;28;20026;-78
2021/06/23 08:47:19;;;;;;;31.17;7.40;;;16.40;99.90;;;;;;4991867;28;20034;-78
2021/06/23 08:49:47;;;;;;;21.60;5.75;;;16.40;99.90;;;;;;4993204;28;20085;-77
2021/06/23 08:52:13;;;;;;;23.83;6.50;;;16.50;99.90;;;;;;4992848;28;20383;-77
2021/06/23 08:54:41;;;;;;;26.13;6.45;;;16.40;99.90;;;;;;4999937;28;20105;-77
2021/06/23 08:57:08;;;;;;;28.98;6.60;;;16.70;99.90;;;;;;5012757;28;20455;-78
2021/06/23 08:59:34;;;;;;;37.20;6.95;;;16.50;99.90;;;;;;5012725;28;20489;-78
2021/06/23 09:02:00;;;;;;;24.20;6.97;;;16.60;99.90;;;;;;5012148;28;20034;-78
2021/06/23 09:04:26;;;;;;;23.38;6.82;;;16.60;99.90;;;;;;5019429;28;20044;-78
2021/06/23 09:06:55;;;;;;;29.85;5.97;;;16.70;99.90;;;;;;5008777;28;20028;-79
2021/06/23 09:09:25;;;;;;;31.95;6.63;;;16.70;99.90;;;;;;5007019;28;20049;-78
2021/06/23 09:11:59;;;;;;;41.63;7.13;;;16.80;99.90;;;;;;5008314;28;20030;-78
2021/06/23 09:14:29;;;;;;;24.25;7.32;;;17.00;99.90;;;;;;5008422;28;20053;-78
2021/06/23 09:17:06;;;;;;;22.65;6.50;;;17.10;99.90;;;;;;5001634;28;20018;-78
2021/06/23 09:19:40;;;;;;;26.90;6.53;;;17.10;99.90;;;;;;5007819;28;20103;-79
2021/06/23 09:22:28;;;;;;;22.63;5.63;;;17.20;99.90;;;;;;5011437;28;20026;-78
2021/06/23 09:24:54;;;;;;;30.75;7.30;;;17.20;99.90;;;;;;5011432;28;20117;-79
2021/06/23 09:27:22;;;;;;;20.63;5.90;;;17.20;99.90;;;;;;5011010;28;20534;-80
2021/06/23 09:29:51;;;;;;;18.02;5.70;;;17.30;99.90;;;;;;5010871;28;20505;-79
2021/06/23 09:32:17;;;;;;;26.13;6.57;;;17.40;99.90;;;;;;5011807;28;20025;-80
2021/06/23 09:34:46;;;;;;;25.02;7.00;;;17.40;99.90;;;;;;5012100;28;20036;-80
2021/06/23 09:37:37;;;;;;;27.73;5.45;;;17.40;99.90;;;;;;4995654;28;20022;-79
2021/06/23 09:40:16;;;;;;;30.52;5.75;;;17.60;99.90;;;;;;4992521;28;20498;-79
2021/06/23 09:42:44;;;;;;;33.78;6.72;;;17.70;99.90;;;;;;4991951;28;20073;-79
2021/06/23 09:45:12;;;;;;;22.00;5.80;;;17.70;99.90;;;;;;4992533;28;20018;-79
2021/06/23 09:47:39;;;;;;;42.75;6.22;;;17.70;99.90;;;;;;5020819;28;20120;-80
2021/06/23 09:50:11;;;;;;;106.78;16.98;;;17.80;99.90;;;;;;5010702;28;20034;-79
2021/06/23 09:52:50;;;;;;;24.30;5.35;;;17.90;99.90;;;;;;5011601;28;20038;-79
2021/06/23 09:55:18;;;;;;;24.20;5.45;;;18.00;99.90;;;;;;5012006;28;20030;-78
2021/06/23 09:58:13;;;;;;;30.75;5.85;;;18.00;99.90;;;;;;4997333;28;20089;-79
2021/06/23 10:01:12;;;;;;;24.05;5.90;;;18.10;99.90;;;;;;5007475;28;20499;-78
2021/06/23 10:04:08;;;;;;;34.95;7.20;;;18.10;99.90;;;;;;4992287;28;20502;-80
2021/06/23 10:06:40;;;;;;;29.00;7.10;;;18.10;99.90;;;;;;4992586;28;20034;-80
2021/06/23 10:09:14;;;;;;;34.50;6.95;;;18.10;99.90;;;;;;4993426;28;20018;-81
2021/06/23 10:11:41;;;;;;;17.20;4.50;;;18.00;99.90;;;;;;4994264;28;20113;-81
2021/06/23 10:14:08;;;;;;;19.30;5.63;;;18.00;99.90;;;;;;4996000;28;20070;-81
2021/06/23 10:16:35;;;;;;;24.98;6.43;;;18.10;99.90;;;;;;4996117;28;20041;-81
2021/06/23 10:19:03;;;;;;;18.85;4.85;;;18.10;99.90;;;;;;4996169;28;20030;-80
2021/06/23 10:21:30;;;;;;;24.10;5.43;;;18.10;99.90;;;;;;5010895;28;20113;-80
2021/06/23 10:23:57;;;;;;;35.00;6.15;;;18.00;99.90;;;;;;4995927;28;20053;-81
2021/06/23 10:26:25;;;;;;;21.80;5.28;;;18.00;99.90;;;;;;5010999;28;20033;-82
2021/06/23 10:28:53;;;;;;;22.98;5.47;;;17.90;99.90;;;;;;5010208;28;20060;-80
2021/06/23 10:31:22;;;;;;;23.05;5.22;;;17.80;99.90;;;;;;5013997;28;20030;-80
2021/06/23 10:33:48;;;;;;;19.40;5.60;;;17.90;99.90;;;;;;5008894;28;20149;-81
2021/06/23 10:36:14;;;;;;;20.15;5.38;;;17.90;99.90;;;;;;5010127;28;20492;-81
2021/06/23 10:38:43;;;;;;;28.05;5.65;;;17.90;99.90;;;;;;5010297;28;20053;-80
2021/06/23 10:41:09;;;;;;;19.10;4.43;;;17.90;99.90;;;;;;5009436;28;20037;-80
2021/06/23 10:43:35;;;;;;;17.80;5.30;;;17.70;99.90;;;;;;5011171;28;20064;-79
2021/06/23 10:46:01;;;;;;;26.30;6.22;;;17.50;99.90;;;;;;5011350;28;20073;-80
2021/06/23 10:48:26;;;;;;;24.75;5.80;;;17.30;99.90;;;;;;5010470;28;20111;-80
2021/06/23 10:50:52;;;;;;;21.27;4.80;;;17.20;99.90;;;;;;5009162;28;20026;-81
2021/06/23 10:53:36;;;;;;;22.65;5.82;;;17.10;99.90;;;;;;5011416;28;20113;-80
2021/06/23 10:56:04;;;;;;;21.52;5.72;;;16.90;99.90;;;;;;5002859;28;20021;-80
2021/06/23 10:58:33;;;;;;;18.65;6.22;;;16.80;99.90;;;;;;5005956;28;20034;-80
2021/06/23 11:01:07;;;;;;;18.00;6.68;;;16.80;99.90;;;;;;5008334;28;20037;-79
2021/06/23 11:04:03;;;;;;;31.98;5.55;;;16.80;99.90;;;;;;5005935;28;20029;-80
2021/06/23 11:06:40;;;;;;;21.80;4.95;;;16.80;99.90;;;;;;5010090;28;20026;-80
2021/06/23 11:09:23;;;;;;;17.55;4.85;;;16.70;99.90;;;;;;5008323;28;20030;-80
2021/06/23 11:11:49;;;;;;;11.30;4.50;;;16.70;99.90;;;;;;5008754;28;20390;-79
2021/06/23 11:14:16;;;;;;;18.67;5.50;;;16.70;99.90;;;;;;5010397;28;20033;-81
2021/06/23 11:16:42;;;;;;;17.55;5.35;;;16.60;99.90;;;;;;5009738;28;20026;-81
2021/06/23 11:19:09;;;;;;;21.75;4.85;;;16.60;99.90;;;;;;5008651;28;20505;-79
2021/06/23 11:21:35;;;;;;;17.88;4.88;;;16.70;99.90;;;;;;5008834;28;20092;-80
2021/06/23 11:24:02;;;;;;;13.88;4.38;;;16.70;99.90;;;;;;5008397;28;20046;-78
2021/06/23 11:26:28;;;;;;;22.70;5.28;;;16.80;99.90;;;;;;5009686;28;20037;-79
2021/06/23 11:29:10;;;;;;;20.40;6.05;;;16.80;99.90;;;;;;5008439;28;20168;-79
2021/06/23 11:31:51;;;;;;;26.65;5.93;;;16.80;99.90;;;;;;5008726;28;20081;-79
2021/06/23 11:34:36;;;;;;;33.00;6.38;;;16.70;99.90;;;;;;5010408;28;20029;-80
2021/06/23 11:37:02;;;;;;;30.70;6.57;;;16.70;99.90;;;;;;5014090;28;20077;-78
2021/06/23 11:39:28;;;;;;;26.85;5.85;;;16.80;99.90;;;;;;5013878;28;20030;-80
2021/06/23 11:41:54;;;;;;;30.67;7.38;;;16.70;99.90;;;;;;5013112;28;20045;-79
2021/06/23 11:44:20;;;;;;;28.33;6.30;;;16.50;99.90;;;;;;5014022;28;20286;-79
2021/06/23 11:46:45;;;;;;;24.23;6.47;;;16.50;99.90;;;;;;5014060;28;20029;-79
2021/06/23 11:49:11;;;;;;;17.80;6.38;;;16.40;99.90;;;;;;5012459;28;20037;-78
2021/06/23 11:51:36;;;;;;;28.52;6.72;;;16.30;99.90;;;;;;5013405;28;20109;-78
2021/06/23 11:54:05;;;;;;;22.98;5.63;;;16.20;99.90;;;;;;4993139;28;20027;-79
2021/06/23 11:56:31;;;;;;;31.70;5.93;;;16.20;99.90;;;;;;4994291;28;20022;-79
2021/06/23 11:58:57;;;;;;;28.13;6.72;;;16.20;99.90;;;;;;4994186;28;20081;-79
2021/06/23 12:01:22;;;;;;;33.08;6.88;;;16.20;99.90;;;;;;5009029;28;20503;-79
2021/06/23 12:03:49;;;;;;;23.13;6.47;;;16.10;99.90;;;;;;5008303;28;20084;-79
2021/06/23 12:06:15;;;;;;;25.25;6.70;;;16.10;99.90;;;;;;5028933;28;20148;-78
2021/06/23 12:08:41;;;;;;;21.27;6.10;;;16.00;99.90;;;;;;5013363;28;20505;-78
2021/06/23 12:11:06;;;;;;;21.85;7.80;;;16.10;99.90;;;;;;5013613;28;20025;-79
2021/06/23 12:13:32;;;;;;;16.70;5.28;;;16.00;99.90;;;;;;5008482;28;20490;-78
2021/06/23 12:15:58;;;;;;;17.00;5.78;;;16.10;99.90;;;;;;4993922;28;20097;-79
2021/06/23 12:18:24;;;;;;;19.50;6.05;;;16.20;99.90;;;;;;4993793;28;20066;-78
2021/06/23 12:20:49;;;;;;;24.63;6.90;;;16.20;99.90;;;;;;5008877;28;20018;-79
2021/06/23 12:23:15;;;;;;;28.05;7.43;;;16.10;99.90;;;;;;4993541;28;20576;-79
2021/06/23 12:25:44;;;;;;;28.75;5.55;;;16.20;99.90;;;;;;4993618;28;20026;-79
2021/06/23 12:28:11;;;;;;;21.58;5.78;;;16.30;99.90;;;;;;5008599;28;20026;-79
2021/06/23 12:30:38;;;;;;;24.88;7.13;;;16.30;99.90;;;;;;4993689;28;20018;-78
2021/06/23 12:33:07;;;;;;;27.40;7.30;;;16.20;99.90;;;;;;4991567;28;20033;-79
2021/06/23 12:35:33;;;;;;;30.95;6.25;;;16.20;99.90;;;;;;5028162;28;20026;-79
2021/06/23 12:37:59;;;;;;;26.15;7.10;;;16.30;99.90;;;;;;5012911;28;20044;-79
2021/06/23 12:40:26;;;;;;;34.17;7.18;;;16.30;99.90;;;;;;5013163;28;20026;-79
2021/06/23 12:42:51;;;;;;;23.80;5.75;;;16.40;99.90;;;;;;5011451;28;20375;-79
2021/06/23 12:45:32;;;;;;;15.77;4.45;;;16.50;99.90;;;;;;4998126;28;20033;-79
2021/06/23 12:47:58;;;;;;;20.48;5.78;;;16.50;99.90;;;;;;4993114;28;20026;-78
2021/06/23 12:50:23;;;;;;;18.42;6.28;;;16.50;99.90;;;;;;5008161;28;20060;-79
2021/06/23 12:52:50;;;;;;;22.55;6.90;;;16.60;99.90;;;;;;4992865;28;20073;-79
2021/06/23 12:55:17;;;;;;;18.70;5.07;;;16.50;99.90;;;;;;4993454;28;20026;-79
2021/06/23 12:57:43;;;;;;;30.88;6.47;;;16.50;99.90;;;;;;4993215;28;20069;-82